createdAt,value
2023-04-29T00:00:00.929Z,33.70
2023-04-29T00:03:58.195Z,33.30
2023-04-29T00:07:44.109Z,31.40
2023-04-29T00:11:17.097Z,32.10
2023-04-29T00:15:05.737Z,27.70
2023-04-29T00:18:55.076Z,32.80
2023-04-29T00:22:34.520Z,30.50
2023-04-29T00:26:04.180Z,32.50
2023-04-29T00:29:54.027Z,32.90
2023-04-29T00:33:42.926Z,26.30
2023-04-29T00:37:31.141Z,28.00
2023-04-29T00:41:02.166Z,30.20
2023-04-29T00:44:51.287Z,29.40
2023-04-29T00:48:40.364Z,34.10
2023-04-29T00:52:21.986Z,31.20
2023-04-29T00:56:07.197Z,32.90
2023-04-29T00:59:38.969Z,32.00
2023-04-29T01:03:18.005Z,33.30
2023-04-29T01:07:16.305Z,31.20
2023-04-29T01:11:09.691Z,36.80
2023-04-29T01:14:43.028Z,38.60
2023-04-29T01:18:36.344Z,35.20
2023-04-29T01:22:17.187Z,35.70
2023-04-29T01:25:34.744Z,35.90
2023-04-29T01:29:16.959Z,30.00
2023-04-29T01:33:03.880Z,28.80
2023-04-29T01:36:54.674Z,28.00
2023-04-29T01:40:38.559Z,29.10
2023-04-29T01:44:18.111Z,28.60
2023-04-29T01:48:00.870Z,30.50
2023-04-29T01:51:43.730Z,27.50
2023-04-29T01:55:15.032Z,31.00
2023-04-29T01:58:29.485Z,34.20
2023-04-29T02:02:18.535Z,32.40
2023-04-29T02:06:00.325Z,31.40
2023-04-29T02:09:48.776Z,28.70
2023-04-29T02:13:15.805Z,27.70
2023-04-29T02:17:10.394Z,32.70
2023-04-29T02:20:46.418Z,29.30
2023-04-29T02:24:35.148Z,29.00
2023-04-29T02:28:16.505Z,30.90
2023-04-29T02:31:57.703Z,31.20
2023-04-29T02:35:46.684Z,32.70
2023-04-29T02:39:16.452Z,37.60
2023-04-29T02:43:04.984Z,33.80
2023-04-29T02:46:46.382Z,35.30
2023-04-29T02:50:35.018Z,33.80
2023-04-29T02:54:23.426Z,38.40
2023-04-29T02:58:12.339Z,34.90
2023-04-29T03:01:27.861Z,36.30
2023-04-29T03:05:16.166Z,39.40
2023-04-29T03:08:56.836Z,35.80
2023-04-29T03:12:38.384Z,34.30
2023-04-29T03:16:20.221Z,38.30
2023-04-29T03:20:09.541Z,37.00
2023-04-29T03:23:50.045Z,34.00
2023-04-29T03:27:08.929Z,35.70
2023-04-29T03:30:40.753Z,25.60
2023-04-29T03:34:28.450Z,33.70
2023-04-29T03:38:17.984Z,31.40
2023-04-29T03:42:01.847Z,30.50
2023-04-29T03:45:52.729Z,29.60
2023-04-29T03:49:37.239Z,31.20
2023-04-29T03:53:07.310Z,28.30
2023-04-29T03:56:49.154Z,28.60
2023-04-29T04:00:38.124Z,24.40
2023-04-29T04:04:00.993Z,26.70
2023-04-29T04:07:42.945Z,27.00
2023-04-29T04:11:10.638Z,35.20
2023-04-29T04:14:37.729Z,24.80
2023-04-29T04:18:06.628Z,24.50
2023-04-29T04:21:17.005Z,27.20
2023-04-29T04:24:49.885Z,28.30
2023-04-29T04:28:10.183Z,25.60
2023-04-29T04:31:58.939Z,26.70
2023-04-29T04:35:47.690Z,23.70
2023-04-29T04:39:20.741Z,27.20
2023-04-29T04:42:53.555Z,25.30
2023-04-29T04:46:38.094Z,23.20
2023-04-29T04:50:06.259Z,25.50
2023-04-29T04:53:47.271Z,24.40
2023-04-29T04:57:36.370Z,24.50
2023-04-29T05:01:08.409Z,22.10
2023-04-29T05:04:39.777Z,24.80
2023-04-29T05:08:08.952Z,25.20
2023-04-29T05:11:31.181Z,39.40
2023-04-29T05:15:23.118Z,23.90
2023-04-29T05:19:12.080Z,24.10
2023-04-29T05:22:25.399Z,27.00
2023-04-29T05:25:57.777Z,25.20
2023-04-29T05:28:56.883Z,22.80
2023-04-29T05:32:31.573Z,21.60
2023-04-29T05:36:09.955Z,21.50
2023-04-29T05:39:51.160Z,21.70
2023-04-29T05:43:40.108Z,21.60
2023-04-29T05:47:19.607Z,26.40
2023-04-29T05:51:09.289Z,24.00
2023-04-29T05:54:32.444Z,24.70
2023-04-29T05:58:21.459Z,24.90
2023-04-29T06:02:11.601Z,20.80
2023-04-29T06:05:47.336Z,20.00
2023-04-29T06:09:42.690Z,25.90
2023-04-29T06:13:31.446Z,39.70
2023-04-29T06:16:55.954Z,21.60
2023-04-29T06:20:43.658Z,26.50
2023-04-29T06:24:32.868Z,24.00
2023-04-29T06:28:22.053Z,22.50
2023-04-29T06:32:12.075Z,30.70
2023-04-29T06:35:42.158Z,33.90
2023-04-29T06:39:33.088Z,26.20
2023-04-29T06:43:21.402Z,20.70
2023-04-29T06:47:13.907Z,21.40
2023-04-29T06:50:45.987Z,22.20
2023-04-29T06:54:01.530Z,22.50
2023-04-29T06:57:44.080Z,18.40
2023-04-29T07:01:19.630Z,24.50
2023-04-29T07:05:09.969Z,22.80
2023-04-29T07:08:54.787Z,26.00
2023-04-29T07:12:46.148Z,24.50
2023-04-29T07:16:35.734Z,20.90
2023-04-29T07:20:25.960Z,26.60
2023-04-29T07:24:07.467Z,28.60
2023-04-29T07:27:53.104Z,39.40
2023-04-29T07:31:37.473Z,45.10
2023-04-29T07:35:29.548Z,38.20
2023-04-29T07:39:19.781Z,22.20
2023-04-29T07:43:03.755Z,21.40
2023-04-29T07:46:44.342Z,20.50
2023-04-29T07:50:34.425Z,28.40
2023-04-29T07:54:28.086Z,18.70
2023-04-29T07:58:14.086Z,30.40
2023-04-29T08:02:14.126Z,21.10
2023-04-29T08:06:07.423Z,20.00
2023-04-29T08:09:36.106Z,19.10
2023-04-29T08:13:28.607Z,16.70
2023-04-29T08:17:18.872Z,24.00
2023-04-29T08:21:09.112Z,21.50
2023-04-29T08:24:59.329Z,22.70
2023-04-29T08:28:35.994Z,22.10
2023-04-29T08:32:24.544Z,18.20
2023-04-29T08:36:14.491Z,54.50
2023-04-29T08:40:11.545Z,19.00
2023-04-29T08:44:02.310Z,18.00
2023-04-29T08:47:51.623Z,21.60
2023-04-29T08:51:39.043Z,16.50
2023-04-29T08:55:20.103Z,15.70
2023-04-29T08:59:10.146Z,16.20
2023-04-29T09:02:59.847Z,18.60
2023-04-29T09:06:51.028Z,25.50
2023-04-29T09:10:41.037Z,24.50
2023-04-29T09:14:32.569Z,16.70
2023-04-29T09:18:22.705Z,13.30
2023-04-29T09:22:20.485Z,17.20
2023-04-29T09:26:15.722Z,15.10
2023-04-29T09:29:48.754Z,16.90
2023-04-29T09:33:34.431Z,16.20
2023-04-29T09:37:06.966Z,16.10
2023-04-29T09:41:08.935Z,18.40
2023-04-29T09:44:44.870Z,14.10
2023-04-29T09:48:23.411Z,16.20
2023-04-29T09:51:52.453Z,16.80
2023-04-29T09:55:41.554Z,17.50
2023-04-29T09:59:14.010Z,15.60
2023-04-29T10:03:04.553Z,15.30
2023-04-29T10:06:54.223Z,17.80
2023-04-29T10:10:33.163Z,14.10
2023-04-29T10:14:13.785Z,14.40
2023-04-29T10:17:28.865Z,16.20
2023-04-29T10:20:55.379Z,17.40
2023-04-29T10:24:31.472Z,16.80
2023-04-29T10:28:20.783Z,18.10
2023-04-29T10:31:47.663Z,16.60
2023-04-29T10:35:37.060Z,18.50
2023-04-29T10:39:32.443Z,18.70
2023-04-29T10:43:14.667Z,19.00
2023-04-29T10:47:09.789Z,19.90
2023-04-29T10:50:55.745Z,18.50
2023-04-29T10:54:38.540Z,21.00
2023-04-29T10:58:28.329Z,18.90
2023-04-29T11:02:24.271Z,18.30
2023-04-29T11:06:14.273Z,18.00
2023-04-29T11:10:11.445Z,20.50
2023-04-29T11:14:03.624Z,19.80
2023-04-29T11:17:59.552Z,19.60
2023-04-29T11:21:59.952Z,22.70
2023-04-29T11:25:49.888Z,21.40
2023-04-29T11:29:32.750Z,23.30
2023-04-29T11:33:22.099Z,23.10
2023-04-29T11:37:11.317Z,22.70
2023-04-29T11:41:01.026Z,24.50
2023-04-29T11:44:49.484Z,26.40
2023-04-29T11:48:39.220Z,21.40
2023-04-29T11:52:29.513Z,24.90
2023-04-29T11:56:12.971Z,22.80
2023-04-29T12:00:02.928Z,23.20
2023-04-29T12:03:56.474Z,23.30
2023-04-29T12:07:46.111Z,19.60
2023-04-29T12:11:35.303Z,19.20
2023-04-29T12:15:06.600Z,17.40
2023-04-29T12:18:56.119Z,16.00
2023-04-29T12:22:41.111Z,16.50
2023-04-29T12:26:31.176Z,18.60
2023-04-29T12:30:25.461Z,15.10
2023-04-29T12:34:30.956Z,14.30
2023-04-29T12:38:11.694Z,14.30
2023-04-29T12:42:01.356Z,18.60
2023-04-29T12:45:50.340Z,13.40
2023-04-29T12:49:43.753Z,13.40
2023-04-29T12:53:33.513Z,13.20
2023-04-29T12:57:14.995Z,9.90
2023-04-29T13:01:04.625Z,12.40
2023-04-29T13:04:53.984Z,13.00
2023-04-29T13:08:43.179Z,12.70
2023-04-29T13:12:32.015Z,10.80
2023-04-29T13:16:14.882Z,11.00
2023-04-29T13:20:06.374Z,1.40
2023-04-29T13:23:55.180Z,3.30
2023-04-29T13:27:44.852Z,0.90
2023-04-29T13:30:59.586Z,0.90
2023-04-29T13:34:48.647Z,2.40
2023-04-29T13:38:39.033Z,1.50
2023-04-29T13:42:26.181Z,2.50
2023-04-29T13:45:57.303Z,2.50
2023-04-29T13:54:26.229Z,5.00
2023-04-29T13:58:03.034Z,2.10
2023-04-29T14:05:26.476Z,6.20
2023-04-29T14:09:16.038Z,4.10
2023-04-29T14:13:05.509Z,5.60
2023-04-29T14:16:54.912Z,2.30
2023-04-29T14:20:43.765Z,4.70
2023-04-29T14:24:18.631Z,3.20
2023-04-29T14:28:08.120Z,4.30
2023-04-29T14:31:57.671Z,6.40
2023-04-29T14:35:37.282Z,5.70
2023-04-29T14:38:51.105Z,6.90
2023-04-29T14:42:23.014Z,7.70
2023-04-29T14:45:57.842Z,7.40
2023-04-29T14:49:47.832Z,8.00
2023-04-29T14:53:28.058Z,7.20
2023-04-29T14:57:07.904Z,11.70
2023-04-29T15:00:57.369Z,8.90
2023-04-29T15:04:26.520Z,8.50
2023-04-29T15:08:03.620Z,9.10
2023-04-29T15:11:45.936Z,9.30
2023-04-29T15:15:36.457Z,16.70
2023-04-29T15:19:27.085Z,9.70
2023-04-29T15:23:15.931Z,11.40
2023-04-29T15:27:06.310Z,11.30
2023-04-29T15:30:57.404Z,12.30
2023-04-29T15:34:39.145Z,13.70
2023-04-29T15:38:24.783Z,11.30
2023-04-29T15:41:47.591Z,9.00
2023-04-29T15:45:29.102Z,7.90
2023-04-29T15:49:15.049Z,7.60
2023-04-29T15:53:05.123Z,8.50
2023-04-29T15:56:51.958Z,9.70
2023-04-29T16:00:25.439Z,10.40
2023-04-29T16:03:38.139Z,12.30
2023-04-29T16:07:11.242Z,11.80
2023-04-29T16:10:54.334Z,11.80
2023-04-29T16:14:32.502Z,13.50
2023-04-29T16:18:22.541Z,14.20
2023-04-29T16:21:55.678Z,14.70
2023-04-29T16:25:47.000Z,14.80
2023-04-29T16:29:12.659Z,15.30
2023-04-29T16:33:04.462Z,16.20
2023-04-29T16:36:54.801Z,15.00
2023-04-29T16:40:28.168Z,14.10
2023-04-29T16:44:01.226Z,16.70
2023-04-29T16:47:44.752Z,16.30
2023-04-29T16:51:35.030Z,18.00
2023-04-29T16:54:49.879Z,20.20
2023-04-29T16:58:04.572Z,19.90
2023-04-29T17:01:40.811Z,20.40
2023-04-29T17:05:26.997Z,22.80
2023-04-29T17:09:13.524Z,24.60
2023-04-29T17:12:32.265Z,25.30
2023-04-29T17:16:04.046Z,25.80
2023-04-29T17:19:53.582Z,29.60
2023-04-29T17:23:44.601Z,32.30
2023-04-29T17:27:35.327Z,34.60
2023-04-29T17:31:24.650Z,39.40
2023-04-29T17:34:47.039Z,35.40
2023-04-29T17:38:26.337Z,40.20
2023-04-29T17:41:55.531Z,45.50
2023-04-29T17:45:10.851Z,43.40
2023-04-29T17:47:49.935Z,48.50
2023-04-29T17:51:28.417Z,50.60
2023-04-29T17:55:09.267Z,53.80
2023-04-29T17:58:35.924Z,54.20
2023-04-29T18:02:25.895Z,54.60
2023-04-29T18:05:50.178Z,58.20
2023-04-29T18:09:17.151Z,60.80
2023-04-29T18:12:26.855Z,57.50
2023-04-29T18:15:43.018Z,56.50
2023-04-29T18:19:26.591Z,54.30
2023-04-29T18:22:36.224Z,53.40
2023-04-29T18:26:28.594Z,46.70
2023-04-29T18:30:16.385Z,53.30
2023-04-29T18:33:42.535Z,52.00
2023-04-29T18:37:12.641Z,42.70
2023-04-29T18:40:30.644Z,41.40
2023-04-29T18:44:04.225Z,43.00
2023-04-29T18:47:25.976Z,38.00
2023-04-29T18:50:56.437Z,32.60
2023-04-29T18:54:22.019Z,34.40
2023-04-29T18:58:15.336Z,31.70
2023-04-29T19:01:45.993Z,32.40
2023-04-29T19:05:27.115Z,31.40
2023-04-29T19:09:18.895Z,29.50
2023-04-29T19:12:44.535Z,29.70
2023-04-29T19:16:36.306Z,27.30
2023-04-29T19:20:26.665Z,23.30
2023-04-29T19:24:16.147Z,23.10
2023-04-29T19:27:48.962Z,21.50
2023-04-29T19:31:13.055Z,21.10
2023-04-29T19:35:01.542Z,17.50
2023-04-29T19:38:51.291Z,17.30
2023-04-29T19:42:32.697Z,18.60
2023-04-29T19:46:15.006Z,17.10
2023-04-29T19:49:58.689Z,15.20
2023-04-29T19:53:47.151Z,21.50
2023-04-29T19:59:51.806Z,20.90
2023-04-29T20:03:40.095Z,22.10
2023-04-29T20:07:11.345Z,21.40
2023-04-29T20:10:52.086Z,22.50
2023-04-29T20:16:25.024Z,19.90
2023-04-29T20:20:45.798Z,19.50
2023-04-29T20:24:55.400Z,20.10
2023-04-29T20:28:59.381Z,18.10
2023-04-29T20:32:52.426Z,19.70
2023-04-29T20:36:42.914Z,17.90
2023-04-29T20:40:39.087Z,18.40
2023-04-29T20:44:49.231Z,18.90
2023-04-29T20:49:17.734Z,18.90
2023-04-29T20:53:45.185Z,19.40
2023-04-29T20:57:57.772Z,18.90
2023-04-29T21:01:47.927Z,16.50
2023-04-29T21:05:46.664Z,20.80
2023-04-29T21:09:56.507Z,15.60
2023-04-29T21:14:07.057Z,17.10
2023-04-29T21:18:00.235Z,18.90
2023-04-29T21:22:08.478Z,16.60
2023-04-29T21:25:58.308Z,19.10
2023-04-29T21:29:51.821Z,18.60
2023-04-29T21:34:00.859Z,18.30
2023-04-29T21:37:54.277Z,15.50
2023-04-29T21:41:42.670Z,18.70
2023-04-29T21:45:37.185Z,19.00
2023-04-29T21:49:57.235Z,20.50
2023-04-29T21:54:08.660Z,17.90
2023-04-29T21:58:36.352Z,24.50
2023-04-29T22:02:24.346Z,24.10
2023-04-29T22:06:32.574Z,26.20
2023-04-29T22:10:40.298Z,23.50
2023-04-29T22:14:49.021Z,26.60
2023-04-29T22:18:39.789Z,26.30
2023-04-29T22:22:40.200Z,29.70
2023-04-29T22:26:30.252Z,26.70
2023-04-29T22:30:18.228Z,25.50
2023-04-29T22:34:06.802Z,23.10
2023-04-29T22:37:55.091Z,25.70
2023-04-29T22:41:43.018Z,25.10
2023-04-29T22:45:40.355Z,24.50
2023-04-29T22:49:48.478Z,23.00
2023-04-29T22:53:36.915Z,23.10
2023-04-29T22:57:26.020Z,24.50
2023-04-29T23:01:30.547Z,23.90
2023-04-29T23:05:20.301Z,25.30
2023-04-29T23:09:08.890Z,25.20
2023-04-29T23:13:16.431Z,24.30
2023-04-29T23:17:05.769Z,25.10
2023-04-29T23:21:17.146Z,26.70
2023-04-29T23:25:06.202Z,27.40
2023-04-29T23:28:54.112Z,24.20
2023-04-29T23:32:50.873Z,27.80
2023-04-29T23:36:38.697Z,27.90
2023-04-29T23:40:27.656Z,29.60
2023-04-29T23:44:15.431Z,26.40
2023-04-29T23:48:04.353Z,28.80
2023-04-29T23:51:56.940Z,26.70
2023-04-29T23:55:49.279Z,25.70
2023-04-29T23:59:37.321Z,24.80
